createdAt,value
2023-03-02T00:00:23.032Z,16.75
2023-03-02T00:01:01.270Z,22.05
2023-03-02T00:01:42.823Z,16.10
2023-03-02T00:02:17.809Z,32.78
2023-03-02T00:02:50.019Z,10.27
2023-03-02T00:03:24.799Z,9.25
2023-03-02T00:04:02.802Z,33.20
2023-03-02T00:04:41.422Z,13.50
2023-03-02T00:05:16.411Z,13.50
2023-03-02T00:05:48.609Z,11.68
2023-03-02T00:06:22.833Z,17.10
2023-03-02T00:07:02.527Z,13.85
2023-03-02T00:07:37.853Z,26.65
2023-03-02T00:08:10.372Z,23.73
2023-03-02T00:08:43.979Z,14.93
2023-03-02T00:09:19.224Z,16.02
2023-03-02T00:09:51.585Z,12.07
2023-03-02T00:10:23.947Z,23.40
2023-03-02T00:11:01.408Z,14.63
2023-03-02T00:11:38.106Z,11.20
2023-03-02T00:12:10.654Z,18.60
2023-03-02T00:12:45.643Z,9.98
2023-03-02T00:13:17.768Z,14.60
2023-03-02T00:13:49.942Z,15.88
2023-03-02T00:14:24.666Z,33.03
2023-03-02T00:14:56.827Z,12.00
2023-03-02T00:15:30.347Z,16.23
2023-03-02T00:16:05.062Z,18.13
2023-03-02T00:16:37.399Z,12.13
2023-03-02T00:17:10.740Z,26.73
2023-03-02T00:17:45.478Z,19.73
2023-03-02T00:18:17.769Z,11.48
2023-03-02T00:18:50.239Z,10.35
2023-03-02T00:19:25.445Z,15.45
2023-03-02T00:20:10.420Z,28.48
2023-03-02T00:20:42.550Z,10.82
2023-03-02T00:21:18.754Z,36.58
2023-03-02T00:21:50.992Z,27.20
2023-03-02T00:22:23.502Z,24.23
2023-03-02T00:22:58.492Z,26.50
2023-03-02T00:23:30.609Z,10.23
2023-03-02T00:24:02.880Z,16.58
2023-03-02T00:24:38.087Z,23.80
2023-03-02T00:25:11.727Z,13.60
2023-03-02T00:25:43.829Z,11.07
2023-03-02T00:26:20.590Z,14.85
2023-03-02T00:27:03.493Z,14.10
2023-03-02T00:27:38.499Z,11.73
2023-03-02T00:28:12.893Z,20.92
2023-03-02T00:28:45.000Z,23.88
2023-03-02T00:29:19.669Z,18.88
2023-03-02T00:29:51.932Z,14.85
2023-03-02T00:30:24.547Z,20.15
2023-03-02T00:30:59.299Z,22.70
2023-03-02T00:31:31.502Z,24.33
2023-03-02T00:32:04.049Z,28.58
2023-03-02T00:32:39.064Z,19.83
2023-03-02T00:33:11.243Z,17.23
2023-03-02T00:33:43.686Z,17.05
2023-03-02T00:34:18.436Z,15.68
2023-03-02T00:34:50.925Z,10.25
2023-03-02T00:35:23.116Z,10.98
2023-03-02T00:35:57.995Z,13.13
2023-03-02T00:36:30.197Z,15.02
2023-03-02T00:37:02.323Z,19.13
2023-03-02T00:37:38.377Z,12.48
2023-03-02T00:38:10.702Z,11.68
2023-03-02T00:38:42.867Z,20.70
2023-03-02T00:39:19.160Z,20.20
2023-03-02T00:39:57.814Z,7.80
2023-03-02T00:40:30.120Z,14.75
2023-03-02T00:41:04.888Z,20.27
2023-03-02T00:41:37.024Z,27.80
2023-03-02T00:42:11.767Z,18.42
2023-03-02T00:42:43.932Z,12.85
2023-03-02T00:43:19.335Z,10.50
2023-03-02T00:43:51.932Z,20.45
2023-03-02T00:44:24.345Z,18.80
2023-03-02T00:44:59.285Z,15.02
2023-03-02T00:45:31.422Z,23.23
2023-03-02T00:46:09.668Z,19.15
2023-03-02T00:46:44.632Z,16.13
2023-03-02T00:47:16.779Z,15.20
2023-03-02T00:47:49.015Z,12.10
2023-03-02T00:48:23.696Z,19.77
2023-03-02T00:48:55.821Z,11.90
2023-03-02T00:49:28.312Z,12.80
2023-03-02T00:50:03.089Z,20.95
2023-03-02T00:50:41.007Z,24.58
2023-03-02T00:51:13.913Z,15.23
2023-03-02T00:51:48.639Z,12.85
2023-03-02T00:52:20.912Z,11.80
2023-03-02T00:52:53.167Z,13.18
2023-03-02T00:53:27.826Z,18.08
2023-03-02T00:54:02.728Z,21.48
2023-03-02T00:54:34.941Z,10.65
2023-03-02T00:55:10.626Z,25.33
2023-03-02T00:55:42.749Z,16.98
2023-03-02T00:56:15.032Z,13.55
2023-03-02T00:56:55.230Z,13.35
2023-03-02T00:57:30.054Z,12.70
2023-03-02T00:58:02.740Z,21.13
2023-03-02T00:58:38.472Z,11.43
2023-03-02T00:59:26.209Z,18.02
2023-03-02T01:00:07.359Z,21.85
2023-03-02T01:00:45.963Z,16.77
2023-03-02T01:01:18.962Z,15.95
2023-03-02T01:01:58.302Z,22.35
2023-03-02T01:02:34.818Z,16.80
2023-03-02T01:03:07.235Z,13.35
2023-03-02T01:03:39.652Z,23.88
2023-03-02T01:04:14.979Z,30.70
2023-03-02T01:04:48.570Z,20.92
2023-03-02T01:05:20.792Z,15.35
2023-03-02T01:05:56.512Z,13.50
2023-03-02T01:06:28.856Z,12.43
2023-03-02T01:07:11.477Z,34.13
2023-03-02T01:07:46.729Z,25.27
2023-03-02T01:08:23.166Z,12.05
2023-03-02T01:08:59.209Z,16.30
2023-03-02T01:09:34.105Z,16.45
2023-03-02T01:10:07.678Z,24.05
2023-03-02T01:10:40.236Z,8.75
2023-03-02T01:11:17.431Z,15.02
2023-03-02T01:11:49.973Z,14.02
2023-03-02T01:12:22.319Z,8.52
2023-03-02T01:13:11.402Z,11.70
2023-03-02T01:13:46.384Z,15.65
2023-03-02T01:14:18.782Z,15.55
2023-03-02T01:14:54.945Z,28.02
2023-03-02T01:15:30.820Z,17.63
2023-03-02T01:16:07.823Z,20.05
2023-03-02T01:16:40.307Z,14.65
2023-03-02T01:17:14.778Z,9.93
2023-03-02T01:17:50.987Z,18.27
2023-03-02T01:18:23.202Z,10.82
2023-03-02T01:18:55.302Z,16.40
2023-03-02T01:19:27.890Z,11.43
2023-03-02T01:20:02.561Z,17.85
2023-03-02T01:20:34.658Z,11.05
2023-03-02T01:21:09.508Z,11.05
2023-03-02T01:21:44.452Z,17.73
2023-03-02T01:22:17.137Z,12.50
2023-03-02T01:22:50.809Z,11.80
2023-03-02T01:23:26.752Z,14.20
2023-03-02T01:24:04.405Z,17.60
2023-03-02T01:24:37.647Z,16.33
2023-03-02T01:25:10.878Z,25.15
2023-03-02T01:25:46.499Z,9.85
2023-03-02T01:26:18.583Z,26.40
2023-03-02T01:26:51.527Z,11.30
2023-03-02T01:27:26.236Z,18.98
2023-03-02T01:28:00.968Z,17.90
2023-03-02T01:28:33.252Z,15.38
2023-03-02T01:29:08.136Z,14.38
2023-03-02T01:29:40.845Z,10.38
2023-03-02T01:30:14.588Z,17.17
2023-03-02T01:30:50.318Z,12.25
2023-03-02T01:31:22.935Z,18.30
2023-03-02T01:31:55.241Z,16.17
2023-03-02T01:32:30.780Z,10.75
2023-03-02T01:33:05.892Z,22.90
2023-03-02T01:33:38.014Z,16.58
2023-03-02T01:34:14.316Z,16.98
2023-03-02T01:34:47.485Z,22.33
2023-03-02T01:35:19.824Z,13.93
2023-03-02T01:35:54.596Z,9.40
2023-03-02T01:36:26.740Z,25.05
2023-03-02T01:36:58.883Z,25.13
2023-03-02T01:37:39.936Z,14.50
2023-03-02T01:38:18.983Z,8.48
2023-03-02T01:38:52.334Z,12.00
2023-03-02T01:39:27.219Z,15.82
2023-03-02T01:39:59.481Z,16.85
2023-03-02T01:40:31.916Z,28.15
2023-03-02T01:41:12.489Z,15.98
2023-03-02T01:41:46.136Z,14.38
2023-03-02T01:42:18.752Z,26.33
2023-03-02T01:43:02.434Z,14.00
2023-03-02T01:43:37.520Z,28.38
2023-03-02T01:44:45.917Z,18.85
2023-03-02T01:45:54.568Z,17.33
2023-03-02T01:46:37.246Z,13.68
2023-03-02T01:47:19.234Z,17.90
2023-03-02T01:48:03.471Z,14.80
2023-03-02T01:48:49.308Z,8.98
2023-03-02T01:49:29.908Z,9.15
2023-03-02T01:50:09.487Z,15.85
2023-03-02T01:50:43.804Z,11.88
2023-03-02T01:51:20.289Z,16.63
2023-03-02T01:51:56.058Z,13.15
2023-03-02T01:52:32.182Z,12.45
2023-03-02T01:53:04.814Z,22.55
2023-03-02T01:53:46.865Z,21.27
2023-03-02T01:54:24.049Z,24.45
2023-03-02T01:55:03.739Z,42.72
2023-03-02T01:55:41.072Z,17.40
2023-03-02T01:56:15.557Z,23.48
2023-03-02T01:56:47.917Z,16.70
2023-03-02T01:57:27.673Z,14.02
2023-03-02T01:58:03.235Z,15.82
2023-03-02T01:58:38.682Z,18.67
2023-03-02T01:59:17.426Z,30.88
2023-03-02T01:59:53.660Z,14.63
2023-03-02T02:00:31.843Z,19.33
2023-03-02T02:01:05.441Z,18.42
2023-03-02T02:01:44.174Z,14.45
2023-03-02T02:02:16.528Z,16.50
2023-03-02T02:02:55.731Z,15.52
2023-03-02T02:03:33.640Z,10.48
2023-03-02T02:04:07.635Z,21.90
2023-03-02T02:04:42.222Z,14.60
2023-03-02T02:05:24.953Z,14.27
2023-03-02T02:06:06.972Z,17.08
2023-03-02T02:06:47.289Z,28.00
2023-03-02T02:07:20.669Z,9.15
2023-03-02T02:07:52.864Z,11.13
2023-03-02T02:08:29.481Z,18.38
2023-03-02T02:09:07.708Z,20.67
2023-03-02T02:09:48.507Z,15.73
2023-03-02T02:10:21.069Z,13.63
2023-03-02T02:10:54.659Z,16.52
2023-03-02T02:11:32.941Z,11.98
2023-03-02T02:12:06.064Z,16.90
2023-03-02T02:12:43.053Z,12.50
2023-03-02T02:13:23.250Z,9.73
2023-03-02T02:14:02.212Z,14.90
2023-03-02T02:14:34.536Z,10.40
2023-03-02T02:15:11.234Z,18.95
2023-03-02T02:15:44.747Z,29.23
2023-03-02T02:16:21.750Z,17.60
2023-03-02T02:16:56.743Z,24.30
2023-03-02T02:17:30.144Z,9.70
2023-03-02T02:18:02.285Z,12.80
2023-03-02T02:18:40.193Z,13.70
2023-03-02T02:19:25.038Z,26.83
2023-03-02T02:20:07.292Z,20.02
2023-03-02T02:20:49.986Z,17.65
2023-03-02T02:21:23.511Z,19.80
2023-03-02T02:21:55.742Z,20.25
2023-03-02T02:22:43.416Z,7.38
2023-03-02T02:23:26.573Z,11.65
2023-03-02T02:24:08.079Z,18.67
2023-03-02T02:24:47.997Z,12.75
2023-03-02T02:25:45.723Z,24.80
2023-03-02T02:26:29.023Z,10.48
2023-03-02T02:27:01.525Z,16.88
2023-03-02T02:27:35.000Z,16.27
2023-03-02T02:28:17.909Z,14.85
2023-03-02T02:28:58.161Z,11.40
2023-03-02T02:29:34.782Z,8.65
2023-03-02T02:30:11.547Z,29.58
2023-03-02T02:30:53.444Z,45.35
2023-03-02T02:31:35.161Z,22.17
2023-03-02T02:32:16.389Z,51.45
2023-03-02T02:32:56.594Z,21.73
2023-03-02T02:33:31.828Z,20.52
2023-03-02T02:34:13.949Z,37.67
2023-03-02T02:34:53.725Z,10.57
2023-03-02T02:35:28.622Z,18.85
2023-03-02T02:36:10.598Z,21.98
2023-03-02T02:36:47.873Z,10.73
2023-03-02T02:37:27.296Z,10.57
2023-03-02T02:38:07.250Z,25.73
2023-03-02T02:38:41.394Z,9.13
2023-03-02T02:39:24.364Z,16.38
2023-03-02T02:40:01.705Z,16.67
2023-03-02T02:40:45.925Z,13.52
2023-03-02T02:41:28.516Z,9.88
2023-03-02T02:42:07.237Z,22.27
2023-03-02T02:42:44.043Z,9.20
2023-03-02T02:43:19.392Z,16.65
2023-03-02T02:43:51.907Z,22.25
2023-03-02T02:44:27.890Z,19.13
2023-03-02T02:45:04.349Z,22.25
2023-03-02T02:45:36.773Z,10.50
2023-03-02T02:46:13.352Z,30.98
2023-03-02T02:46:45.788Z,8.05
2023-03-02T02:47:21.327Z,30.77
2023-03-02T02:47:59.251Z,12.70
2023-03-02T02:48:32.580Z,24.30
2023-03-02T02:49:11.239Z,14.95
2023-03-02T02:49:47.339Z,12.27
2023-03-02T02:50:23.082Z,20.05
2023-03-02T02:51:00.631Z,34.30
2023-03-02T02:51:36.874Z,13.80
2023-03-02T02:52:14.173Z,20.00
2023-03-02T02:52:54.368Z,6.25
2023-03-02T02:53:33.369Z,12.45
2023-03-02T02:54:08.104Z,22.35
2023-03-02T02:54:45.103Z,14.20
2023-03-02T02:55:21.806Z,13.52
2023-03-02T02:56:00.860Z,11.73
2023-03-02T02:56:39.067Z,7.28
2023-03-02T02:57:19.472Z,12.18
2023-03-02T02:58:00.506Z,15.55
2023-03-02T02:58:39.023Z,13.45
2023-03-02T02:59:27.614Z,39.60
2023-03-02T03:00:06.140Z,24.33
2023-03-02T03:00:38.589Z,10.32
2023-03-02T03:01:19.885Z,20.58
2023-03-02T03:01:53.332Z,18.20
2023-03-02T03:02:28.881Z,15.52
2023-03-02T03:03:09.417Z,32.00
2023-03-02T03:03:47.101Z,15.05
2023-03-02T03:04:23.337Z,9.05
2023-03-02T03:05:03.530Z,15.70
2023-03-02T03:06:16.938Z,32.33
2023-03-02T03:06:55.661Z,11.18
2023-03-02T03:07:27.781Z,9.25
2023-03-02T03:08:33.029Z,9.00
2023-03-02T03:09:09.157Z,16.10
2023-03-02T03:09:54.758Z,13.93
2023-03-02T03:10:35.900Z,21.98
2023-03-02T03:11:20.784Z,35.10
2023-03-02T03:11:59.425Z,12.88
2023-03-02T03:12:36.628Z,13.82
2023-03-02T03:13:18.673Z,20.30
2023-03-02T03:13:55.786Z,17.60
2023-03-02T03:14:34.182Z,11.43
2023-03-02T03:15:08.096Z,32.85
2023-03-02T03:15:40.512Z,10.80
2023-03-02T03:16:16.383Z,17.60
2023-03-02T03:16:53.294Z,28.30
2023-03-02T03:17:25.602Z,12.82
2023-03-02T03:18:03.160Z,20.40
2023-03-02T03:18:35.357Z,13.93
2023-03-02T03:19:18.281Z,23.10
2023-03-02T03:19:50.451Z,16.15
2023-03-02T03:20:23.452Z,11.60
2023-03-02T03:20:55.685Z,18.77
2023-03-02T03:21:33.000Z,33.13
2023-03-02T03:22:05.507Z,34.70
2023-03-02T03:22:42.752Z,19.20
2023-03-02T03:23:19.270Z,12.23
2023-03-02T03:23:51.420Z,41.22
2023-03-02T03:24:25.235Z,15.05
2023-03-02T03:25:07.737Z,21.15
2023-03-02T03:25:41.943Z,9.77
2023-03-02T03:26:15.107Z,23.27
2023-03-02T03:26:50.937Z,20.55
2023-03-02T03:27:30.262Z,12.43
2023-03-02T03:28:04.140Z,34.70
2023-03-02T03:28:38.549Z,16.08
2023-03-02T03:29:14.082Z,23.08
2023-03-02T03:29:48.407Z,42.80
2023-03-02T03:30:23.692Z,11.52
2023-03-02T03:31:04.475Z,14.30
2023-03-02T03:31:44.670Z,13.52
2023-03-02T03:32:24.140Z,13.90
2023-03-02T03:33:00.015Z,23.92
2023-03-02T03:33:33.348Z,16.42
2023-03-02T03:34:09.152Z,20.60
2023-03-02T03:34:42.361Z,13.52
2023-03-02T03:35:24.601Z,10.10
2023-03-02T03:36:00.919Z,15.63
2023-03-02T03:36:33.848Z,12.55
2023-03-02T03:37:07.349Z,22.02
2023-03-02T03:37:46.117Z,21.50
2023-03-02T03:38:52.478Z,38.30
2023-03-02T03:39:27.313Z,11.32
2023-03-02T03:40:00.315Z,33.58
2023-03-02T03:40:34.530Z,19.65
2023-03-02T03:41:10.776Z,26.17
2023-03-02T03:41:43.965Z,19.92
2023-03-02T03:42:16.306Z,13.25
2023-03-02T03:42:54.629Z,26.08
2023-03-02T03:43:26.879Z,13.80
2023-03-02T03:44:00.162Z,20.95
2023-03-02T03:44:34.766Z,21.88
2023-03-02T03:45:11.425Z,24.38
2023-03-02T03:45:44.593Z,15.40
2023-03-02T03:46:17.032Z,14.45
2023-03-02T03:46:52.567Z,21.98
2023-03-02T03:47:27.817Z,13.68
2023-03-02T03:48:00.309Z,23.85
2023-03-02T03:48:32.642Z,13.82
2023-03-02T03:49:11.048Z,20.15
2023-03-02T03:49:44.597Z,16.52
2023-03-02T03:50:17.835Z,17.42
2023-03-02T03:50:52.604Z,14.68
2023-03-02T03:51:25.491Z,40.47
2023-03-02T03:51:58.886Z,25.85
2023-03-02T03:52:34.061Z,30.05
2023-03-02T03:53:13.223Z,18.25
2023-03-02T03:54:00.371Z,19.58
2023-03-02T03:54:40.763Z,13.73
2023-03-02T03:55:13.325Z,24.25
2023-03-02T03:55:47.163Z,18.10
2023-03-02T03:56:22.089Z,19.25
2023-03-02T03:56:54.541Z,15.80
2023-03-02T03:57:26.868Z,21.48
2023-03-02T03:58:04.212Z,20.92
2023-03-02T03:58:36.496Z,17.73
2023-03-02T03:59:13.914Z,17.92
2023-03-02T03:59:53.842Z,17.77
2023-03-02T04:00:26.515Z,16.17
2023-03-02T04:01:04.244Z,18.98
2023-03-02T04:01:41.447Z,11.15
2023-03-02T04:02:13.715Z,24.55
2023-03-02T04:02:48.701Z,18.42
2023-03-02T04:03:31.723Z,17.40
2023-03-02T04:04:11.099Z,25.80
2023-03-02T04:04:46.389Z,27.75
2023-03-02T04:05:21.647Z,74.25
2023-03-02T04:05:59.675Z,23.52
2023-03-02T04:06:32.178Z,20.45
2023-03-02T04:07:04.635Z,17.98
2023-03-02T04:07:44.950Z,22.33
2023-03-02T04:08:17.296Z,21.77
2023-03-02T04:08:49.575Z,13.75
2023-03-02T04:09:24.476Z,20.30
2023-03-02T04:10:03.835Z,11.60
2023-03-02T04:10:42.097Z,17.80
2023-03-02T04:11:14.259Z,18.70
2023-03-02T04:11:48.744Z,20.95
2023-03-02T04:12:23.928Z,16.58
2023-03-02T04:13:05.396Z,16.50
2023-03-02T04:13:38.244Z,11.40
2023-03-02T04:14:13.967Z,25.77
2023-03-02T04:14:47.554Z,46.33
2023-03-02T04:15:19.877Z,45.38
2023-03-02T04:15:56.210Z,54.13
2023-03-02T04:16:29.244Z,48.47
2023-03-02T04:17:01.710Z,51.58
2023-03-02T04:17:36.594Z,39.88
2023-03-02T04:18:08.996Z,69.25
2023-03-02T04:18:43.536Z,22.17
2023-03-02T04:19:18.544Z,16.33
2023-03-02T04:19:55.793Z,24.92
2023-03-02T04:20:29.061Z,22.80
2023-03-02T04:21:05.546Z,30.63
2023-03-02T04:21:45.088Z,29.58
2023-03-02T04:22:19.119Z,22.67
2023-03-02T04:22:56.444Z,38.65
2023-03-02T04:23:28.859Z,32.63
2023-03-02T04:24:01.114Z,46.38
2023-03-02T04:24:36.127Z,20.38
2023-03-02T04:25:10.035Z,27.83
2023-03-02T04:25:42.126Z,16.77
2023-03-02T04:26:22.120Z,22.40
2023-03-02T04:26:54.393Z,26.77
2023-03-02T04:27:27.038Z,33.67
2023-03-02T04:28:02.559Z,14.95
2023-03-02T04:28:43.625Z,24.77
2023-03-02T04:29:19.613Z,42.20
2023-03-02T04:29:54.515Z,43.85
2023-03-02T04:30:27.779Z,30.80
2023-03-02T04:31:10.306Z,36.97
2023-03-02T04:31:48.452Z,34.10
2023-03-02T04:32:21.817Z,31.25
2023-03-02T04:33:01.387Z,44.97
2023-03-02T04:33:34.921Z,28.00
2023-03-02T04:34:08.436Z,43.78
2023-03-02T04:34:45.559Z,38.92
2023-03-02T04:35:18.284Z,31.90
2023-03-02T04:35:54.698Z,34.28
2023-03-02T04:36:31.894Z,31.23
2023-03-02T04:37:09.320Z,27.75
2023-03-02T04:37:42.935Z,53.30
2023-03-02T04:38:17.985Z,61.60
2023-03-02T04:38:50.459Z,39.00
2023-03-02T04:39:40.121Z,32.78
2023-03-02T04:40:18.123Z,40.55
2023-03-02T04:40:53.105Z,28.83
2023-03-02T04:41:26.743Z,29.27
2023-03-02T04:42:01.680Z,27.08
2023-03-02T04:42:33.818Z,25.67
2023-03-02T04:43:09.307Z,45.47
2023-03-02T04:43:48.038Z,30.85
2023-03-02T04:44:21.057Z,13.88
2023-03-02T04:44:56.092Z,11.50
2023-03-02T04:45:28.588Z,23.17
2023-03-02T04:46:00.876Z,28.00
2023-03-02T04:46:36.786Z,20.80
2023-03-02T04:47:12.335Z,32.80
2023-03-02T04:47:45.921Z,23.48
2023-03-02T04:48:20.947Z,31.73
2023-03-02T04:48:53.816Z,22.55
2023-03-02T04:49:26.027Z,18.90
2023-03-02T04:50:01.109Z,48.25
2023-03-02T04:50:34.085Z,65.22
2023-03-02T04:51:06.658Z,28.83
2023-03-02T04:51:43.566Z,23.90
2023-03-02T04:52:15.677Z,21.20
2023-03-02T04:52:48.148Z,19.35
2023-03-02T04:53:23.116Z,61.40
2023-03-02T04:53:57.347Z,16.33
2023-03-02T04:54:29.812Z,44.55
2023-03-02T04:55:04.833Z,17.80
2023-03-02T04:55:38.272Z,60.13
2023-03-02T04:56:23.105Z,14.60
2023-03-02T04:56:58.852Z,22.92
2023-03-02T04:57:31.250Z,36.22
2023-03-02T04:58:06.026Z,25.10
2023-03-02T04:58:38.280Z,21.65
2023-03-02T04:59:15.009Z,23.80
2023-03-02T04:59:55.386Z,19.70
2023-03-02T05:00:36.907Z,19.38
2023-03-02T05:01:12.065Z,29.27
2023-03-02T05:01:54.460Z,30.67
2023-03-02T05:02:27.817Z,19.02
2023-03-02T05:03:05.193Z,44.25
2023-03-02T05:03:40.098Z,14.18
2023-03-02T05:04:18.632Z,23.95
2023-03-02T05:04:55.126Z,21.90
2023-03-02T05:05:29.670Z,31.05
2023-03-02T05:06:10.055Z,37.97
2023-03-02T05:06:49.649Z,23.73
2023-03-02T05:07:23.274Z,19.52
2023-03-02T05:07:55.957Z,18.17
2023-03-02T05:08:30.726Z,133.63
2023-03-02T05:09:02.951Z,22.75
2023-03-02T05:09:35.068Z,47.10
2023-03-02T05:10:11.085Z,50.47
2023-03-02T05:10:43.256Z,51.92
2023-03-02T05:11:22.611Z,46.08
2023-03-02T05:11:58.290Z,22.77
2023-03-02T05:12:31.438Z,21.02
2023-03-02T05:13:08.760Z,15.35
2023-03-02T05:13:45.845Z,17.23
2023-03-02T05:14:20.914Z,51.85
2023-03-02T05:14:57.314Z,24.20
2023-03-02T05:15:39.227Z,22.30
2023-03-02T05:16:13.343Z,28.40
2023-03-02T05:16:45.590Z,25.67
2023-03-02T05:17:20.287Z,32.88
2023-03-02T05:17:59.318Z,30.77
2023-03-02T05:18:37.838Z,27.35
2023-03-02T05:19:14.587Z,39.55
2023-03-02T05:19:46.680Z,29.35
2023-03-02T05:20:19.880Z,34.97
2023-03-02T05:20:55.925Z,31.80
2023-03-02T05:21:28.615Z,36.00
2023-03-02T05:22:01.377Z,31.40
2023-03-02T05:22:36.111Z,48.40
2023-03-02T05:23:11.244Z,24.77
2023-03-02T05:23:44.381Z,19.08
2023-03-02T05:24:19.509Z,46.15
2023-03-02T05:24:55.513Z,18.10
2023-03-02T05:25:37.783Z,37.58
2023-03-02T05:26:10.814Z,51.83
2023-03-02T05:26:45.621Z,30.98
2023-03-02T05:27:23.733Z,14.98
2023-03-02T05:27:56.680Z,29.77
2023-03-02T05:28:29.430Z,30.05
2023-03-02T05:29:05.812Z,27.65
2023-03-02T05:29:43.140Z,45.85
2023-03-02T05:30:17.544Z,63.83
2023-03-02T05:30:57.293Z,49.30
2023-03-02T05:31:32.319Z,64.40
2023-03-02T05:32:07.686Z,55.95
2023-03-02T05:32:43.162Z,39.00
2023-03-02T05:33:16.968Z,23.05
2023-03-02T05:33:52.046Z,41.30
2023-03-02T05:34:32.579Z,34.50
2023-03-02T05:35:06.901Z,30.13
2023-03-02T05:35:39.315Z,31.35
2023-03-02T05:36:14.047Z,37.17
2023-03-02T05:36:54.160Z,40.55
2023-03-02T05:37:31.162Z,51.30
2023-03-02T05:38:05.357Z,41.72
2023-03-02T05:38:41.158Z,47.38
2023-03-02T05:39:16.984Z,41.75
2023-03-02T05:39:50.552Z,70.65
2023-03-02T05:40:25.202Z,20.70
2023-03-02T05:41:04.388Z,40.70
2023-03-02T05:41:37.529Z,21.55
2023-03-02T05:42:11.872Z,63.65
2023-03-02T05:42:48.864Z,31.95
2023-03-02T05:43:22.863Z,61.05
2023-03-02T05:43:55.278Z,23.35
2023-03-02T05:44:32.930Z,38.28
2023-03-02T05:45:25.355Z,33.95
2023-03-02T05:46:03.226Z,43.20
2023-03-02T05:46:39.797Z,28.88
2023-03-02T05:47:12.024Z,64.20
2023-03-02T05:47:44.165Z,85.70
2023-03-02T05:48:21.107Z,27.90
2023-03-02T05:48:57.757Z,51.70
2023-03-02T05:49:31.138Z,49.42
2023-03-02T05:50:05.887Z,48.67
2023-03-02T05:50:41.059Z,50.63
2023-03-02T05:51:14.536Z,32.75
2023-03-02T05:51:50.975Z,45.95
2023-03-02T05:52:27.614Z,36.45
2023-03-02T05:53:02.547Z,49.17
2023-03-02T05:53:37.258Z,51.75
2023-03-02T05:54:10.115Z,46.55
2023-03-02T05:54:43.519Z,36.63
2023-03-02T05:55:23.240Z,31.05
2023-03-02T05:55:55.603Z,47.75
2023-03-02T05:56:27.883Z,44.47
2023-03-02T05:57:02.545Z,65.50
2023-03-02T05:57:34.898Z,51.85
2023-03-02T05:58:10.864Z,65.65
2023-03-02T05:58:45.606Z,37.55
2023-03-02T05:59:17.731Z,103.43
2023-03-02T05:59:51.059Z,47.75
2023-03-02T06:00:36.090Z,55.75
2023-03-02T06:01:10.454Z,58.08
2023-03-02T06:01:42.716Z,37.00
2023-03-02T06:02:17.466Z,51.78
2023-03-02T06:02:50.028Z,45.67
2023-03-02T06:03:22.882Z,25.80
2023-03-02T06:03:58.417Z,62.25
2023-03-02T06:04:31.801Z,33.83
2023-03-02T06:05:04.688Z,40.58
2023-03-02T06:05:39.776Z,29.35
2023-03-02T06:06:14.332Z,38.70
2023-03-02T06:06:50.207Z,66.40
2023-03-02T06:07:23.413Z,48.70
2023-03-02T06:07:56.258Z,39.10
2023-03-02T06:08:32.024Z,32.50
2023-03-02T06:09:05.891Z,31.33
2023-03-02T06:09:38.993Z,31.33
2023-03-02T06:10:16.103Z,28.48
2023-03-02T06:10:50.980Z,43.08
2023-03-02T06:11:26.341Z,52.97
2023-03-02T06:12:02.899Z,45.75
2023-03-02T06:12:35.365Z,28.08
2023-03-02T06:13:10.767Z,49.05
2023-03-02T06:13:42.888Z,68.68
2023-03-02T06:14:15.068Z,41.60
2023-03-02T06:14:50.802Z,49.38
2023-03-02T06:15:23.052Z,53.33
2023-03-02T06:16:00.751Z,34.15
2023-03-02T06:16:34.125Z,30.50
2023-03-02T06:17:06.615Z,36.47
2023-03-02T06:17:41.649Z,36.90
2023-03-02T06:18:14.954Z,37.50
2023-03-02T06:18:47.097Z,36.00
2023-03-02T06:19:21.882Z,39.80
2023-03-02T06:19:54.141Z,35.30
2023-03-02T06:20:26.383Z,43.45
2023-03-02T06:21:01.692Z,46.45
2023-03-02T06:21:33.876Z,38.45
2023-03-02T06:22:14.045Z,51.67
2023-03-02T06:22:52.079Z,65.82
2023-03-02T06:23:25.728Z,77.63
2023-03-02T06:23:57.896Z,71.20
2023-03-02T06:24:32.590Z,81.47
2023-03-02T06:25:05.608Z,70.53
2023-03-02T06:25:41.401Z,51.70
2023-03-02T06:26:16.673Z,81.28
2023-03-02T06:26:48.785Z,63.75
2023-03-02T06:27:20.906Z,66.80
2023-03-02T06:27:56.046Z,75.40
2023-03-02T06:28:28.248Z,60.45
2023-03-02T06:29:02.952Z,80.88
2023-03-02T06:29:35.192Z,83.15
2023-03-02T06:30:09.811Z,40.25
2023-03-02T06:30:44.638Z,48.10
2023-03-02T06:31:19.937Z,69.28
2023-03-02T06:31:55.005Z,49.13
2023-03-02T06:32:29.992Z,69.38
2023-03-02T06:33:07.347Z,43.00
2023-03-02T06:33:39.807Z,45.13
2023-03-02T06:34:16.045Z,83.85
2023-03-02T06:34:48.325Z,48.35
2023-03-02T06:35:22.655Z,43.30
2023-03-02T06:35:57.581Z,73.43
2023-03-02T06:36:30.107Z,78.40
2023-03-02T06:37:02.285Z,86.68
2023-03-02T06:37:37.560Z,43.92
2023-03-02T06:38:09.835Z,64.88
2023-03-02T06:38:41.997Z,54.80
2023-03-02T06:39:18.509Z,60.15
2023-03-02T06:39:50.869Z,78.32
2023-03-02T06:40:23.701Z,61.25
2023-03-02T06:40:58.508Z,48.78
2023-03-02T06:41:31.303Z,51.47
2023-03-02T06:42:04.157Z,42.47
2023-03-02T06:42:39.497Z,41.15
2023-03-02T06:43:11.732Z,64.78
2023-03-02T06:43:44.138Z,56.83
2023-03-02T06:44:20.384Z,60.45
2023-03-02T06:44:54.851Z,51.45
2023-03-02T06:45:27.845Z,51.63
2023-03-02T06:46:03.462Z,66.95
2023-03-02T06:46:38.911Z,80.45
2023-03-02T06:47:11.224Z,104.70
2023-03-02T06:47:46.131Z,97.00
2023-03-02T06:48:18.314Z,112.53
2023-03-02T06:48:53.064Z,89.50
2023-03-02T06:49:25.584Z,63.13
2023-03-02T06:49:57.957Z,67.15
2023-03-02T06:50:30.587Z,86.22
2023-03-02T06:51:05.492Z,77.78
2023-03-02T06:51:37.876Z,93.38
2023-03-02T06:52:11.175Z,128.10
2023-03-02T06:52:46.128Z,83.78
2023-03-02T06:53:20.472Z,75.75
2023-03-02T06:53:52.725Z,58.75
2023-03-02T06:54:27.651Z,88.78
2023-03-02T06:54:59.783Z,79.95
2023-03-02T06:55:34.487Z,76.15
2023-03-02T06:56:07.827Z,95.30
2023-03-02T06:56:41.091Z,141.65
2023-03-02T06:57:16.036Z,78.93
2023-03-02T06:57:48.128Z,81.63
2023-03-02T06:58:20.580Z,92.88
2023-03-02T06:58:55.458Z,67.55
2023-03-02T06:59:27.745Z,65.22
2023-03-02T07:00:01.092Z,75.53
2023-03-02T07:00:35.765Z,84.57
2023-03-02T07:01:08.178Z,77.30
2023-03-02T07:01:43.142Z,82.78
2023-03-02T07:02:18.063Z,60.15
2023-03-02T07:02:51.331Z,40.15
2023-03-02T07:03:23.482Z,61.72
2023-03-02T07:03:58.408Z,61.90
2023-03-02T07:04:30.520Z,48.35
2023-03-02T07:05:02.825Z,66.72
2023-03-02T07:05:37.638Z,109.50
2023-03-02T07:06:11.349Z,71.55
2023-03-02T07:06:43.596Z,60.38
2023-03-02T07:07:18.284Z,68.35
2023-03-02T07:07:50.790Z,55.95
2023-03-02T07:08:23.146Z,42.47
2023-03-02T07:08:57.940Z,57.88
2023-03-02T07:09:32.409Z,35.30
2023-03-02T07:10:05.377Z,55.47
2023-03-02T07:10:40.174Z,94.57
2023-03-02T07:11:13.392Z,62.30
2023-03-02T07:11:45.501Z,59.78
2023-03-02T07:12:20.421Z,70.95
2023-03-02T07:12:53.681Z,54.67
2023-03-02T07:13:26.058Z,104.70
2023-03-02T07:14:03.055Z,65.68
2023-03-02T07:14:35.721Z,75.82
2023-03-02T07:15:14.424Z,115.00
2023-03-02T07:15:46.995Z,59.65
2023-03-02T07:16:19.155Z,73.90
2023-03-02T07:16:57.642Z,68.00
2023-03-02T07:17:29.821Z,52.65
2023-03-02T07:18:01.929Z,58.75
2023-03-02T07:18:36.586Z,78.78
2023-03-02T07:19:12.271Z,81.30
2023-03-02T07:19:44.549Z,46.83
2023-03-02T07:20:21.090Z,87.45
2023-03-02T07:20:53.176Z,42.95
2023-03-02T07:21:25.307Z,97.75
2023-03-02T07:21:59.963Z,91.57
2023-03-02T07:22:32.680Z,75.55
2023-03-02T07:23:05.053Z,81.80
2023-03-02T07:23:39.724Z,101.10
2023-03-02T07:24:11.831Z,84.05
2023-03-02T07:24:45.014Z,82.45
2023-03-02T07:25:19.902Z,77.85
2023-03-02T07:25:52.045Z,61.33
2023-03-02T07:26:26.786Z,60.97
2023-03-02T07:26:58.910Z,80.82
2023-03-02T07:27:31.096Z,36.90
2023-03-02T07:28:06.290Z,70.90
2023-03-02T07:28:39.790Z,55.25
2023-03-02T07:29:12.070Z,55.50
2023-03-02T07:29:46.789Z,67.78
2023-03-02T07:30:21.309Z,54.70
2023-03-02T07:30:54.214Z,56.42
2023-03-02T07:31:28.943Z,43.78
2023-03-02T07:32:03.675Z,44.50
2023-03-02T07:32:38.498Z,83.55
2023-03-02T07:33:10.619Z,55.65
2023-03-02T07:33:42.914Z,54.85
2023-03-02T07:34:18.051Z,35.10
2023-03-02T07:34:50.143Z,46.17
2023-03-02T07:35:24.951Z,46.33
2023-03-02T07:35:57.184Z,61.72
2023-03-02T07:36:32.061Z,52.70
2023-03-02T07:37:04.872Z,80.97
2023-03-02T07:37:36.969Z,75.95
2023-03-02T07:38:11.626Z,79.18
2023-03-02T07:38:43.780Z,70.55